sensor_id;sensor_type;location;lat;lon;timestamp;P1;durP1;ratioP1;P2;durP2;ratioP2
39486;SDS011;25173;50.430;18.926;2022-12-08T00:02:49;46.50;;;29.88;;
39486;SDS011;25173;50.430;18.926;2022-12-08T00:05:50;47.85;;;29.17;;
39486;SDS011;25173;50.430;18.926;2022-12-08T00:09:13;49.08;;;28.63;;
39486;SDS011;25173;50.430;18.926;2022-12-08T00:12:21;46.88;;;25.52;;
39486;SDS011;25173;50.430;18.926;2022-12-08T00:15:21;38.50;;;21.40;;
39486;SDS011;25173;50.430;18.926;2022-12-08T00:18:22;41.50;;;21.95;;
39486;SDS011;25173;50.430;18.926;2022-12-08T00:21:23;40.75;;;22.63;;
39486;SDS011;25173;50.430;18.926;2022-12-08T00:24:24;35.17;;;21.75;;
39486;SDS011;25173;50.430;18.926;2022-12-08T00:27:28;38.92;;;25.17;;
39486;SDS011;25173;50.430;18.926;2022-12-08T00:30:29;32.85;;;21.63;;
39486;SDS011;25173;50.430;18.926;2022-12-08T00:33:30;30.02;;;18.27;;
39486;SDS011;25173;50.430;18.926;2022-12-08T00:36:31;33.03;;;20.95;;
39486;SDS011;25173;50.430;18.926;2022-12-08T00:39:32;30.65;;;16.15;;
39486;SDS011;25173;50.430;18.926;2022-12-08T00:42:32;25.35;;;15.30;;
39486;SDS011;25173;50.430;18.926;2022-12-08T00:45:33;23.85;;;14.88;;
39486;SDS011;25173;50.430;18.926;2022-12-08T00:48:34;20.40;;;13.32;;
39486;SDS011;25173;50.430;18.926;2022-12-08T00:51:35;24.58;;;15.70;;
39486;SDS011;25173;50.430;18.926;2022-12-08T00:54:35;19.42;;;12.80;;
39486;SDS011;25173;50.430;18.926;2022-12-08T00:57:36;21.95;;;13.38;;
39486;SDS011;25173;50.430;18.926;2022-12-08T01:00:38;21.20;;;14.85;;
39486;SDS011;25173;50.430;18.926;2022-12-08T01:03:40;22.35;;;13.80;;
39486;SDS011;25173;50.430;18.926;2022-12-08T01:06:42;17.00;;;11.80;;
39486;SDS011;25173;50.430;18.926;2022-12-08T01:09:43;20.15;;;12.07;;
39486;SDS011;25173;50.430;18.926;2022-12-08T01:12:44;22.67;;;13.27;;
39486;SDS011;25173;50.430;18.926;2022-12-08T01:15:45;18.73;;;11.35;;
39486;SDS011;25173;50.430;18.926;2022-12-08T01:18:45;20.20;;;12.68;;
39486;SDS011;25173;50.430;18.926;2022-12-08T01:21:46;16.83;;;11.25;;
39486;SDS011;25173;50.430;18.926;2022-12-08T01:24:47;16.33;;;11.75;;
39486;SDS011;25173;50.430;18.926;2022-12-08T01:27:47;21.52;;;12.05;;
39486;SDS011;25173;50.430;18.926;2022-12-08T01:30:48;17.42;;;11.63;;
39486;SDS011;25173;50.430;18.926;2022-12-08T01:33:49;18.33;;;12.07;;
39486;SDS011;25173;50.430;18.926;2022-12-08T01:36:49;18.20;;;12.43;;
39486;SDS011;25173;50.430;18.926;2022-12-08T01:39:50;20.20;;;12.68;;
39486;SDS011;25173;50.430;18.926;2022-12-08T01:42:50;20.63;;;12.52;;
39486;SDS011;25173;50.430;18.926;2022-12-08T01:45:51;22.05;;;12.77;;
39486;SDS011;25173;50.430;18.926;2022-12-08T01:52:29;17.92;;;10.90;;
39486;SDS011;25173;50.430;18.926;2022-12-08T01:55:42;18.30;;;11.32;;
39486;SDS011;25173;50.430;18.926;2022-12-08T01:58:48;20.40;;;11.60;;
39486;SDS011;25173;50.430;18.926;2022-12-08T02:01:52;15.90;;;10.82;;
39486;SDS011;25173;50.430;18.926;2022-12-08T02:04:52;17.52;;;11.32;;
39486;SDS011;25173;50.430;18.926;2022-12-08T02:07:53;17.15;;;11.27;;
39486;SDS011;25173;50.430;18.926;2022-12-08T02:10:56;17.63;;;11.35;;
39486;SDS011;25173;50.430;18.926;2022-12-08T02:13:56;21.58;;;11.98;;
39486;SDS011;25173;50.430;18.926;2022-12-08T02:27:18;15.77;;;10.88;;
39486;SDS011;25173;50.430;18.926;2022-12-08T02:30:24;17.52;;;11.60;;
39486;SDS011;25173;50.430;18.926;2022-12-08T02:34:00;20.42;;;11.57;;
39486;SDS011;25173;50.430;18.926;2022-12-08T02:37:10;17.17;;;12.00;;
39486;SDS011;25173;50.430;18.926;2022-12-08T02:43:22;17.10;;;11.38;;
39486;SDS011;25173;50.430;18.926;2022-12-08T02:46:26;18.98;;;12.43;;
39486;SDS011;25173;50.430;18.926;2022-12-08T02:49:32;29.48;;;15.00;;
39486;SDS011;25173;50.430;18.926;2022-12-08T02:52:37;29.27;;;18.58;;
39486;SDS011;25173;50.430;18.926;2022-12-08T03:09:32;25.55;;;18.77;;
39486;SDS011;25173;50.430;18.926;2022-12-08T03:12:41;24.48;;;18.08;;
39486;SDS011;25173;50.430;18.926;2022-12-08T03:15:48;23.92;;;17.70;;
39486;SDS011;25173;50.430;18.926;2022-12-08T03:18:59;20.52;;;14.60;;
39486;SDS011;25173;50.430;18.926;2022-12-08T03:22:05;17.92;;;13.20;;
39486;SDS011;25173;50.430;18.926;2022-12-08T03:25:06;18.85;;;14.25;;
39486;SDS011;25173;50.430;18.926;2022-12-08T03:28:09;18.13;;;13.48;;
39486;SDS011;25173;50.430;18.926;2022-12-08T03:31:12;17.33;;;11.63;;
39486;SDS011;25173;50.430;18.926;2022-12-08T03:34:15;16.50;;;11.70;;
39486;SDS011;25173;50.430;18.926;2022-12-08T03:37:17;15.82;;;11.30;;
39486;SDS011;25173;50.430;18.926;2022-12-08T03:40:18;16.50;;;11.95;;
39486;SDS011;25173;50.430;18.926;2022-12-08T03:43:20;15.80;;;11.68;;
39486;SDS011;25173;50.430;18.926;2022-12-08T03:46:21;18.40;;;12.43;;
39486;SDS011;25173;50.430;18.926;2022-12-08T03:49:24;16.13;;;11.27;;
39486;SDS011;25173;50.430;18.926;2022-12-08T03:52:24;20.15;;;12.73;;
39486;SDS011;25173;50.430;18.926;2022-12-08T03:55:25;13.95;;;11.23;;
39486;SDS011;25173;50.430;18.926;2022-12-08T03:58:26;17.67;;;12.32;;
39486;SDS011;25173;50.430;18.926;2022-12-08T04:01:26;17.77;;;13.68;;
39486;SDS011;25173;50.430;18.926;2022-12-08T04:04:27;18.10;;;13.77;;
39486;SDS011;25173;50.430;18.926;2022-12-08T04:07:28;20.08;;;14.27;;
39486;SDS011;25173;50.430;18.926;2022-12-08T04:10:29;24.02;;;17.38;;
39486;SDS011;25173;50.430;18.926;2022-12-08T04:13:30;21.55;;;15.82;;
39486;SDS011;25173;50.430;18.926;2022-12-08T04:16:30;18.45;;;12.98;;
39486;SDS011;25173;50.430;18.926;2022-12-08T04:19:31;21.67;;;15.15;;
39486;SDS011;25173;50.430;18.926;2022-12-08T04:22:32;26.77;;;16.83;;
39486;SDS011;25173;50.430;18.926;2022-12-08T04:25:32;34.83;;;22.02;;
39486;SDS011;25173;50.430;18.926;2022-12-08T04:28:34;25.50;;;18.38;;
39486;SDS011;25173;50.430;18.926;2022-12-08T04:31:34;26.35;;;16.90;;
39486;SDS011;25173;50.430;18.926;2022-12-08T04:34:35;28.65;;;19.48;;
39486;SDS011;25173;50.430;18.926;2022-12-08T04:37:36;31.65;;;20.20;;
39486;SDS011;25173;50.430;18.926;2022-12-08T04:40:37;28.20;;;19.20;;
39486;SDS011;25173;50.430;18.926;2022-12-08T04:43:38;29.80;;;21.40;;
39486;SDS011;25173;50.430;18.926;2022-12-08T04:46:38;34.10;;;22.65;;
39486;SDS011;25173;50.430;18.926;2022-12-08T04:49:39;29.70;;;20.02;;
39486;SDS011;25173;50.430;18.926;2022-12-08T04:52:39;34.58;;;21.85;;
39486;SDS011;25173;50.430;18.926;2022-12-08T04:55:41;34.45;;;21.35;;
39486;SDS011;25173;50.430;18.926;2022-12-08T04:58:43;43.90;;;24.92;;
39486;SDS011;25173;50.430;18.926;2022-12-08T05:01:44;43.80;;;23.85;;
39486;SDS011;25173;50.430;18.926;2022-12-08T05:04:45;36.05;;;20.52;;
39486;SDS011;25173;50.430;18.926;2022-12-08T05:07:45;34.20;;;20.58;;
39486;SDS011;25173;50.430;18.926;2022-12-08T05:10:46;37.47;;;24.27;;
39486;SDS011;25173;50.430;18.926;2022-12-08T05:13:47;42.17;;;23.33;;
39486;SDS011;25173;50.430;18.926;2022-12-08T05:16:47;49.60;;;26.58;;
39486;SDS011;25173;50.430;18.926;2022-12-08T05:19:48;37.42;;;21.25;;
39486;SDS011;25173;50.430;18.926;2022-12-08T05:22:49;38.92;;;21.80;;
39486;SDS011;25173;50.430;18.926;2022-12-08T05:25:49;32.63;;;19.17;;
39486;SDS011;25173;50.430;18.926;2022-12-08T05:28:50;37.55;;;22.42;;
39486;SDS011;25173;50.430;18.926;2022-12-08T05:31:51;49.53;;;25.45;;
39486;SDS011;25173;50.430;18.926;2022-12-08T05:34:52;40.70;;;25.75;;
39486;SDS011;25173;50.430;18.926;2022-12-08T05:37:52;43.22;;;26.02;;
39486;SDS011;25173;50.430;18.926;2022-12-08T05:40:53;38.35;;;23.88;;
39486;SDS011;25173;50.430;18.926;2022-12-08T05:43:54;36.65;;;22.23;;
39486;SDS011;25173;50.430;18.926;2022-12-08T05:46:54;34.55;;;20.85;;
39486;SDS011;25173;50.430;18.926;2022-12-08T05:49:55;31.52;;;20.38;;
39486;SDS011;25173;50.430;18.926;2022-12-08T05:52:55;34.30;;;19.30;;
39486;SDS011;25173;50.430;18.926;2022-12-08T05:55:56;33.33;;;19.75;;
39486;SDS011;25173;50.430;18.926;2022-12-08T05:58:57;31.20;;;19.85;;
39486;SDS011;25173;50.430;18.926;2022-12-08T06:01:57;28.00;;;18.85;;
39486;SDS011;25173;50.430;18.926;2022-12-08T06:04:58;27.30;;;17.35;;
39486;SDS011;25173;50.430;18.926;2022-12-08T06:07:59;32.67;;;20.33;;
39486;SDS011;25173;50.430;18.926;2022-12-08T06:11:00;31.33;;;18.73;;
39486;SDS011;25173;50.430;18.926;2022-12-08T06:14:01;40.83;;;22.48;;
39486;SDS011;25173;50.430;18.926;2022-12-08T06:17:02;50.13;;;32.35;;
39486;SDS011;25173;50.430;18.926;2022-12-08T06:20:03;53.85;;;29.50;;
39486;SDS011;25173;50.430;18.926;2022-12-08T06:23:04;56.22;;;37.60;;
39486;SDS011;25173;50.430;18.926;2022-12-08T06:26:06;65.97;;;42.67;;
39486;SDS011;25173;50.430;18.926;2022-12-08T06:29:09;50.25;;;31.40;;
39486;SDS011;25173;50.430;18.926;2022-12-08T06:32:10;52.28;;;33.08;;
39486;SDS011;25173;50.430;18.926;2022-12-08T06:35:11;42.33;;;23.35;;
39486;SDS011;25173;50.430;18.926;2022-12-08T06:38:12;32.85;;;20.45;;
39486;SDS011;25173;50.430;18.926;2022-12-08T06:41:13;33.40;;;20.90;;
39486;SDS011;25173;50.430;18.926;2022-12-08T06:44:14;35.25;;;21.60;;
39486;SDS011;25173;50.430;18.926;2022-12-08T06:47:15;32.05;;;19.52;;
39486;SDS011;25173;50.430;18.926;2022-12-08T06:50:15;31.20;;;18.95;;
39486;SDS011;25173;50.430;18.926;2022-12-08T06:53:16;32.53;;;20.90;;
39486;SDS011;25173;50.430;18.926;2022-12-08T06:56:17;37.13;;;21.48;;
39486;SDS011;25173;50.430;18.926;2022-12-08T06:59:19;34.22;;;22.27;;
39486;SDS011;25173;50.430;18.926;2022-12-08T07:02:19;48.55;;;26.25;;
39486;SDS011;25173;50.430;18.926;2022-12-08T07:05:20;62.83;;;35.75;;
39486;SDS011;25173;50.430;18.926;2022-12-08T07:08:21;63.95;;;36.00;;
39486;SDS011;25173;50.430;18.926;2022-12-08T07:11:22;50.95;;;29.17;;
39486;SDS011;25173;50.430;18.926;2022-12-08T07:14:23;51.75;;;31.70;;
39486;SDS011;25173;50.430;18.926;2022-12-08T07:17:24;45.92;;;27.83;;
39486;SDS011;25173;50.430;18.926;2022-12-08T07:20:24;44.17;;;26.13;;
39486;SDS011;25173;50.430;18.926;2022-12-08T07:23:25;44.22;;;26.27;;
39486;SDS011;25173;50.430;18.926;2022-12-08T07:26:26;44.28;;;25.08;;
39486;SDS011;25173;50.430;18.926;2022-12-08T07:29:27;40.03;;;23.73;;
39486;SDS011;25173;50.430;18.926;2022-12-08T07:32:28;51.22;;;32.38;;
39486;SDS011;25173;50.430;18.926;2022-12-08T07:35:28;51.67;;;32.53;;
39486;SDS011;25173;50.430;18.926;2022-12-08T07:38:29;41.60;;;27.10;;
39486;SDS011;25173;50.430;18.926;2022-12-08T07:41:30;36.72;;;22.65;;
39486;SDS011;25173;50.430;18.926;2022-12-08T07:44:35;37.20;;;21.15;;
39486;SDS011;25173;50.430;18.926;2022-12-08T07:47:35;40.78;;;24.88;;
39486;SDS011;25173;50.430;18.926;2022-12-08T07:50:36;42.08;;;24.48;;
39486;SDS011;25173;50.430;18.926;2022-12-08T07:53:38;35.38;;;20.60;;
39486;SDS011;25173;50.430;18.926;2022-12-08T07:56:39;37.22;;;22.67;;
39486;SDS011;25173;50.430;18.926;2022-12-08T07:59:40;41.28;;;25.38;;
39486;SDS011;25173;50.430;18.926;2022-12-08T08:02:44;34.42;;;22.90;;
39486;SDS011;25173;50.430;18.926;2022-12-08T08:05:48;42.78;;;25.75;;
39486;SDS011;25173;50.430;18.926;2022-12-08T08:08:49;40.58;;;24.40;;
39486;SDS011;25173;50.430;18.926;2022-12-08T08:11:53;43.75;;;25.55;;
39486;SDS011;25173;50.430;18.926;2022-12-08T08:14:54;46.20;;;27.40;;
39486;SDS011;25173;50.430;18.926;2022-12-08T08:17:54;50.75;;;28.52;;
39486;SDS011;25173;50.430;18.926;2022-12-08T08:20:55;47.05;;;29.35;;
39486;SDS011;25173;50.430;18.926;2022-12-08T08:23:56;54.53;;;32.05;;
39486;SDS011;25173;50.430;18.926;2022-12-08T08:26:56;47.42;;;28.42;;
39486;SDS011;25173;50.430;18.926;2022-12-08T08:29:57;51.50;;;31.30;;
39486;SDS011;25173;50.430;18.926;2022-12-08T08:32:59;49.70;;;28.90;;
39486;SDS011;25173;50.430;18.926;2022-12-08T08:35:59;46.72;;;31.15;;
39486;SDS011;25173;50.430;18.926;2022-12-08T08:39:00;55.25;;;33.80;;
39486;SDS011;25173;50.430;18.926;2022-12-08T08:42:02;82.22;;;48.55;;
39486;SDS011;25173;50.430;18.926;2022-12-08T08:45:03;62.75;;;36.33;;
39486;SDS011;25173;50.430;18.926;2022-12-08T08:48:04;64.88;;;36.97;;
39486;SDS011;25173;50.430;18.926;2022-12-08T08:51:08;62.97;;;35.20;;
39486;SDS011;25173;50.430;18.926;2022-12-08T08:54:10;69.05;;;41.00;;
39486;SDS011;25173;50.430;18.926;2022-12-08T08:57:11;69.18;;;39.85;;
39486;SDS011;25173;50.430;18.926;2022-12-08T09:00:12;64.45;;;38.10;;
39486;SDS011;25173;50.430;18.926;2022-12-08T09:03:13;51.33;;;32.10;;
39486;SDS011;25173;50.430;18.926;2022-12-08T09:06:14;55.42;;;31.83;;
39486;SDS011;25173;50.430;18.926;2022-12-08T09:09:15;55.53;;;34.95;;
39486;SDS011;25173;50.430;18.926;2022-12-08T09:12:16;49.05;;;27.25;;
39486;SDS011;25173;50.430;18.926;2022-12-08T09:15:17;51.92;;;31.20;;
39486;SDS011;25173;50.430;18.926;2022-12-08T09:18:20;51.55;;;29.52;;
39486;SDS011;25173;50.430;18.926;2022-12-08T09:21:22;56.40;;;33.92;;
39486;SDS011;25173;50.430;18.926;2022-12-08T09:24:25;49.13;;;28.77;;
39486;SDS011;25173;50.430;18.926;2022-12-08T09:27:26;55.92;;;30.77;;
39486;SDS011;25173;50.430;18.926;2022-12-08T09:30:27;72.20;;;37.88;;
39486;SDS011;25173;50.430;18.926;2022-12-08T09:33:27;49.47;;;27.33;;
39486;SDS011;25173;50.430;18.926;2022-12-08T09:36:28;44.53;;;26.60;;
39486;SDS011;25173;50.430;18.926;2022-12-08T09:39:29;55.15;;;31.75;;
39486;SDS011;25173;50.430;18.926;2022-12-08T09:42:35;54.88;;;31.40;;
39486;SDS011;25173;50.430;18.926;2022-12-08T09:45:43;63.13;;;38.92;;
39486;SDS011;25173;50.430;18.926;2022-12-08T09:48:51;57.60;;;33.05;;
39486;SDS011;25173;50.430;18.926;2022-12-08T09:51:55;65.43;;;35.03;;
39486;SDS011;25173;50.430;18.926;2022-12-08T09:54:57;58.22;;;34.33;;
39486;SDS011;25173;50.430;18.926;2022-12-08T10:01:06;59.42;;;33.65;;
39486;SDS011;25173;50.430;18.926;2022-12-08T10:04:19;76.97;;;42.70;;
39486;SDS011;25173;50.430;18.926;2022-12-08T10:07:29;81.95;;;44.28;;
39486;SDS011;25173;50.430;18.926;2022-12-08T10:10:41;73.13;;;41.90;;
39486;SDS011;25173;50.430;18.926;2022-12-08T10:17:04;64.88;;;37.95;;
39486;SDS011;25173;50.430;18.926;2022-12-08T10:20:16;53.47;;;29.98;;
39486;SDS011;25173;50.430;18.926;2022-12-08T10:23:21;56.47;;;31.50;;
39486;SDS011;25173;50.430;18.926;2022-12-08T10:26:26;46.50;;;27.85;;
39486;SDS011;25173;50.430;18.926;2022-12-08T10:29:27;53.85;;;27.25;;
39486;SDS011;25173;50.430;18.926;2022-12-08T10:32:32;38.83;;;24.05;;
39486;SDS011;25173;50.430;18.926;2022-12-08T10:38:48;34.78;;;19.50;;
39486;SDS011;25173;50.430;18.926;2022-12-08T10:41:49;41.63;;;23.88;;
39486;SDS011;25173;50.430;18.926;2022-12-08T10:48:01;46.38;;;27.17;;
39486;SDS011;25173;50.430;18.926;2022-12-08T10:51:08;42.03;;;23.73;;
39486;SDS011;25173;50.430;18.926;2022-12-08T10:54:34;45.35;;;24.80;;
39486;SDS011;25173;50.430;18.926;2022-12-08T10:57:37;56.67;;;32.20;;
39486;SDS011;25173;50.430;18.926;2022-12-08T11:00:38;60.83;;;29.63;;
39486;SDS011;25173;50.430;18.926;2022-12-08T11:06:45;42.10;;;24.15;;
39486;SDS011;25173;50.430;18.926;2022-12-08T11:09:48;55.53;;;30.83;;
39486;SDS011;25173;50.430;18.926;2022-12-08T11:12:54;53.65;;;30.75;;
39486;SDS011;25173;50.430;18.926;2022-12-08T11:15:59;48.28;;;28.50;;
39486;SDS011;25173;50.430;18.926;2022-12-08T11:19:00;52.97;;;29.23;;
39486;SDS011;25173;50.430;18.926;2022-12-08T11:25:42;55.13;;;31.13;;
39486;SDS011;25173;50.430;18.926;2022-12-08T11:28:42;54.58;;;25.05;;
39486;SDS011;25173;50.430;18.926;2022-12-08T11:31:45;58.47;;;30.23;;
39486;SDS011;25173;50.430;18.926;2022-12-08T11:35:00;60.80;;;29.65;;
39486;SDS011;25173;50.430;18.926;2022-12-08T11:38:05;73.03;;;36.90;;
39486;SDS011;25173;50.430;18.926;2022-12-08T11:41:13;59.88;;;33.08;;
39486;SDS011;25173;50.430;18.926;2022-12-08T11:47:43;51.42;;;29.13;;
39486;SDS011;25173;50.430;18.926;2022-12-08T11:50:49;51.75;;;29.63;;
39486;SDS011;25173;50.430;18.926;2022-12-08T11:57:20;51.22;;;29.52;;
39486;SDS011;25173;50.430;18.926;2022-12-08T12:00:23;45.00;;;28.35;;
39486;SDS011;25173;50.430;18.926;2022-12-08T12:03:35;40.05;;;23.77;;
39486;SDS011;25173;50.430;18.926;2022-12-08T12:13:34;64.68;;;36.15;;
39486;SDS011;25173;50.430;18.926;2022-12-08T12:17:04;45.15;;;25.92;;
39486;SDS011;25173;50.430;18.926;2022-12-08T12:23:34;57.30;;;32.58;;
39486;SDS011;25173;50.430;18.926;2022-12-08T12:26:37;55.35;;;31.40;;
39486;SDS011;25173;50.430;18.926;2022-12-08T12:29:52;61.03;;;34.58;;
39486;SDS011;25173;50.430;18.926;2022-12-08T12:32:59;70.00;;;36.60;;
39486;SDS011;25173;50.430;18.926;2022-12-08T12:36:01;50.97;;;29.55;;
39486;SDS011;25173;50.430;18.926;2022-12-08T12:39:05;49.78;;;28.23;;
39486;SDS011;25173;50.430;18.926;2022-12-08T12:45:42;51.80;;;29.23;;
39486;SDS011;25173;50.430;18.926;2022-12-08T12:48:45;42.60;;;24.02;;
39486;SDS011;25173;50.430;18.926;2022-12-08T12:51:46;45.00;;;25.02;;
39486;SDS011;25173;50.430;18.926;2022-12-08T12:57:56;76.75;;;43.22;;
39486;SDS011;25173;50.430;18.926;2022-12-08T13:04:11;32.30;;;21.13;;
39486;SDS011;25173;50.430;18.926;2022-12-08T13:07:22;42.97;;;21.52;;
39486;SDS011;25173;50.430;18.926;2022-12-08T13:13:32;38.10;;;21.35;;
39486;SDS011;25173;50.430;18.926;2022-12-08T13:16:33;41.40;;;23.65;;
39486;SDS011;25173;50.430;18.926;2022-12-08T13:19:38;53.83;;;32.63;;
39486;SDS011;25173;50.430;18.926;2022-12-08T13:22:47;21.60;;;13.32;;
39486;SDS011;25173;50.430;18.926;2022-12-08T13:29:25;32.00;;;17.00;;
39486;SDS011;25173;50.430;18.926;2022-12-08T13:36:02;34.80;;;21.60;;
39486;SDS011;25173;50.430;18.926;2022-12-08T13:39:35;36.20;;;19.90;;
39486;SDS011;25173;50.430;18.926;2022-12-08T13:42:41;25.77;;;16.33;;
39486;SDS011;25173;50.430;18.926;2022-12-08T13:45:46;19.95;;;13.15;;
39486;SDS011;25173;50.430;18.926;2022-12-08T13:48:52;18.95;;;12.75;;
39486;SDS011;25173;50.430;18.926;2022-12-08T13:51:56;23.67;;;16.30;;
39486;SDS011;25173;50.430;18.926;2022-12-08T13:54:57;22.77;;;14.30;;
39486;SDS011;25173;50.430;18.926;2022-12-08T13:58:01;29.00;;;18.63;;
39486;SDS011;25173;50.430;18.926;2022-12-08T14:04:11;50.22;;;29.15;;
39486;SDS011;25173;50.430;18.926;2022-12-08T14:07:17;34.42;;;21.30;;
39486;SDS011;25173;50.430;18.926;2022-12-08T14:10:19;29.88;;;17.20;;
39486;SDS011;25173;50.430;18.926;2022-12-08T14:13:22;70.28;;;44.22;;
39486;SDS011;25173;50.430;18.926;2022-12-08T14:16:28;44.35;;;29.75;;
39486;SDS011;25173;50.430;18.926;2022-12-08T14:19:33;25.08;;;17.52;;
39486;SDS011;25173;50.430;18.926;2022-12-08T14:22:35;37.58;;;24.25;;
39486;SDS011;25173;50.430;18.926;2022-12-08T14:25:37;53.50;;;31.20;;
39486;SDS011;25173;50.430;18.926;2022-12-08T14:28:38;52.83;;;33.15;;
39486;SDS011;25173;50.430;18.926;2022-12-08T14:31:39;54.50;;;31.73;;
39486;SDS011;25173;50.430;18.926;2022-12-08T14:34:41;56.80;;;31.95;;
39486;SDS011;25173;50.430;18.926;2022-12-08T14:37:45;53.03;;;30.13;;
39486;SDS011;25173;50.430;18.926;2022-12-08T14:41:03;45.10;;;27.05;;
39486;SDS011;25173;50.430;18.926;2022-12-08T14:44:18;46.00;;;25.10;;
39486;SDS011;25173;50.430;18.926;2022-12-08T14:47:22;37.92;;;24.05;;
39486;SDS011;25173;50.430;18.926;2022-12-08T14:50:35;47.05;;;28.30;;
39486;SDS011;25173;50.430;18.926;2022-12-08T14:57:05;38.85;;;23.98;;
39486;SDS011;25173;50.430;18.926;2022-12-08T15:00:07;45.33;;;26.35;;
39486;SDS011;25173;50.430;18.926;2022-12-08T15:03:17;47.90;;;30.27;;
39486;SDS011;25173;50.430;18.926;2022-12-08T15:06:21;47.75;;;31.65;;
39486;SDS011;25173;50.430;18.926;2022-12-08T15:09:29;59.53;;;33.17;;
39486;SDS011;25173;50.430;18.926;2022-12-08T15:12:54;63.00;;;37.15;;
39486;SDS011;25173;50.430;18.926;2022-12-08T15:19:36;74.70;;;46.85;;
39486;SDS011;25173;50.430;18.926;2022-12-08T15:22:37;66.95;;;42.83;;
39486;SDS011;25173;50.430;18.926;2022-12-08T15:25:38;71.03;;;45.35;;
39486;SDS011;25173;50.430;18.926;2022-12-08T15:28:38;69.10;;;43.53;;
39486;SDS011;25173;50.430;18.926;2022-12-08T15:31:39;72.55;;;43.95;;
39486;SDS011;25173;50.430;18.926;2022-12-08T15:34:40;79.13;;;47.25;;
39486;SDS011;25173;50.430;18.926;2022-12-08T15:37:41;70.22;;;41.05;;
39486;SDS011;25173;50.430;18.926;2022-12-08T15:40:41;83.32;;;50.67;;
39486;SDS011;25173;50.430;18.926;2022-12-08T15:43:42;98.40;;;56.08;;
39486;SDS011;25173;50.430;18.926;2022-12-08T15:46:43;72.50;;;41.00;;
39486;SDS011;25173;50.430;18.926;2022-12-08T15:49:44;92.63;;;51.40;;
39486;SDS011;25173;50.430;18.926;2022-12-08T15:52:46;81.93;;;40.90;;
39486;SDS011;25173;50.430;18.926;2022-12-08T15:55:47;81.50;;;47.17;;
39486;SDS011;25173;50.430;18.926;2022-12-08T15:58:48;68.68;;;44.95;;
39486;SDS011;25173;50.430;18.926;2022-12-08T16:01:50;67.50;;;43.80;;
39486;SDS011;25173;50.430;18.926;2022-12-08T16:04:51;67.60;;;43.15;;
39486;SDS011;25173;50.430;18.926;2022-12-08T16:07:52;74.95;;;50.50;;
39486;SDS011;25173;50.430;18.926;2022-12-08T16:10:53;88.70;;;50.55;;
39486;SDS011;25173;50.430;18.926;2022-12-08T16:14:14;79.50;;;47.78;;
39486;SDS011;25173;50.430;18.926;2022-12-08T16:17:15;69.93;;;45.47;;
39486;SDS011;25173;50.430;18.926;2022-12-08T16:20:17;63.63;;;45.22;;
39486;SDS011;25173;50.430;18.926;2022-12-08T16:23:18;68.90;;;46.75;;
39486;SDS011;25173;50.430;18.926;2022-12-08T16:26:19;89.57;;;64.18;;
39486;SDS011;25173;50.430;18.926;2022-12-08T16:29:22;122.13;;;87.05;;
39486;SDS011;25173;50.430;18.926;2022-12-08T16:32:22;101.40;;;68.00;;
39486;SDS011;25173;50.430;18.926;2022-12-08T16:35:23;92.82;;;54.75;;
39486;SDS011;25173;50.430;18.926;2022-12-08T16:38:24;69.75;;;43.22;;
39486;SDS011;25173;50.430;18.926;2022-12-08T16:41:25;68.00;;;40.40;;
39486;SDS011;25173;50.430;18.926;2022-12-08T16:44:43;96.28;;;61.70;;
39486;SDS011;25173;50.430;18.926;2022-12-08T16:48:02;71.03;;;48.92;;
39486;SDS011;25173;50.430;18.926;2022-12-08T16:51:03;68.65;;;44.28;;
39486;SDS011;25173;50.430;18.926;2022-12-08T16:54:08;68.35;;;46.20;;
39486;SDS011;25173;50.430;18.926;2022-12-08T16:57:09;96.53;;;58.20;;
39486;SDS011;25173;50.430;18.926;2022-12-08T17:00:13;89.88;;;56.58;;
39486;SDS011;25173;50.430;18.926;2022-12-08T17:03:16;85.45;;;51.17;;
39486;SDS011;25173;50.430;18.926;2022-12-08T17:06:17;83.90;;;54.78;;
39486;SDS011;25173;50.430;18.926;2022-12-08T17:09:18;74.15;;;50.28;;
39486;SDS011;25173;50.430;18.926;2022-12-08T17:12:18;68.68;;;43.35;;
39486;SDS011;25173;50.430;18.926;2022-12-08T17:15:20;63.95;;;41.53;;
39486;SDS011;25173;50.430;18.926;2022-12-08T17:18:22;84.05;;;50.83;;
39486;SDS011;25173;50.430;18.926;2022-12-08T17:21:23;88.30;;;54.53;;
39486;SDS011;25173;50.430;18.926;2022-12-08T17:24:23;124.40;;;73.03;;
39486;SDS011;25173;50.430;18.926;2022-12-08T17:27:28;129.73;;;64.97;;
39486;SDS011;25173;50.430;18.926;2022-12-08T17:30:28;119.82;;;65.28;;
39486;SDS011;25173;50.430;18.926;2022-12-08T17:33:38;112.70;;;65.28;;
39486;SDS011;25173;50.430;18.926;2022-12-08T17:36:41;92.97;;;57.55;;
39486;SDS011;25173;50.430;18.926;2022-12-08T17:39:41;102.40;;;63.83;;
39486;SDS011;25173;50.430;18.926;2022-12-08T17:42:42;114.20;;;67.20;;
39486;SDS011;25173;50.430;18.926;2022-12-08T17:45:46;111.75;;;63.35;;
39486;SDS011;25173;50.430;18.926;2022-12-08T17:48:48;119.95;;;71.97;;
39486;SDS011;25173;50.430;18.926;2022-12-08T17:51:49;111.88;;;70.28;;
39486;SDS011;25173;50.430;18.926;2022-12-08T17:54:52;126.85;;;79.32;;
39486;SDS011;25173;50.430;18.926;2022-12-08T17:57:52;137.43;;;82.07;;
39486;SDS011;25173;50.430;18.926;2022-12-08T18:00:53;140.23;;;80.10;;
39486;SDS011;25173;50.430;18.926;2022-12-08T18:03:54;138.13;;;81.47;;
39486;SDS011;25173;50.430;18.926;2022-12-08T18:06:54;177.23;;;97.75;;
39486;SDS011;25173;50.430;18.926;2022-12-08T18:09:57;246.00;;;132.05;;
39486;SDS011;25173;50.430;18.926;2022-12-08T18:12:58;231.40;;;126.20;;
39486;SDS011;25173;50.430;18.926;2022-12-08T18:15:59;158.35;;;85.47;;
39486;SDS011;25173;50.430;18.926;2022-12-08T18:18:59;133.00;;;75.07;;
39486;SDS011;25173;50.430;18.926;2022-12-08T18:22:00;120.50;;;71.93;;
39486;SDS011;25173;50.430;18.926;2022-12-08T18:25:01;135.43;;;81.43;;
39486;SDS011;25173;50.430;18.926;2022-12-08T18:28:01;125.82;;;72.88;;
39486;SDS011;25173;50.430;18.926;2022-12-08T18:31:13;105.05;;;62.80;;
39486;SDS011;25173;50.430;18.926;2022-12-08T18:34:15;82.40;;;52.33;;
39486;SDS011;25173;50.430;18.926;2022-12-08T18:37:18;95.53;;;56.28;;
39486;SDS011;25173;50.430;18.926;2022-12-08T18:40:18;95.13;;;58.00;;
39486;SDS011;25173;50.430;18.926;2022-12-08T18:43:19;81.95;;;54.25;;
39486;SDS011;25173;50.430;18.926;2022-12-08T18:46:20;103.38;;;68.03;;
39486;SDS011;25173;50.430;18.926;2022-12-08T18:49:21;167.57;;;104.63;;
39486;SDS011;25173;50.430;18.926;2022-12-08T18:52:21;170.20;;;92.97;;
39486;SDS011;25173;50.430;18.926;2022-12-08T18:55:22;123.50;;;68.45;;
39486;SDS011;25173;50.430;18.926;2022-12-08T18:58:23;128.57;;;70.60;;
39486;SDS011;25173;50.430;18.926;2022-12-08T19:01:23;104.78;;;58.85;;
39486;SDS011;25173;50.430;18.926;2022-12-08T19:04:24;189.55;;;93.13;;
39486;SDS011;25173;50.430;18.926;2022-12-08T19:07:25;238.93;;;119.72;;
39486;SDS011;25173;50.430;18.926;2022-12-08T19:10:26;263.17;;;145.93;;
39486;SDS011;25173;50.430;18.926;2022-12-08T19:13:27;243.82;;;132.15;;